»·PEaware :: N153CD KSNA-KCRQ

N153CD :: KSNA-KCRQ

FLIGHT INFORMATION

Flight Status: Arrived
Operator: Privately registered:
United States
More flights under this callsign
Pilot: Erik B. (9150)
Aircraft: CIRRUS SR-20
(SR20)
More flights by this aircraft type
Origin: KSNA John Wayne-Orange Co
United States
Destination: KCRQ McClellan-Palomar
United States
More flights between these airports :: More routes between these airports
Route: +KSNA V23 OCN KCRQ
File this flight plan on PilotEdge
Remarks:
Altitude:
(Current/Filed)
5,000ft
Speed:
(Current/Filed)
130kts
Departed: 13-Jun-18 07:36 AM
Arrived: 13-Jun-18 08:23 AM
Distance/Time
Traveled:
44nm/0:47
Distance/Time
To Go:
Arrived

Flight Plot

Page will automatically refresh every two minutes.


Map Options




Map Legend


Flown Route
Filed Route
Departure Airport
Arrival Airport
Navaid (VOR, NDB)
Fix

Horizontal Profiles

Position Reports

Time Latitude Longitude Heading Altitude Ground
Speed
13-Jun-18 07:12 33.674331 -117.872076 299 58ft 0kts
13-Jun-18 07:13 33.674331 -117.872076 299 58ft 0kts
13-Jun-18 07:14 33.674331 -117.872076 299 58ft 0kts
13-Jun-18 07:15 33.674331 -117.872076 299 58ft 0kts
13-Jun-18 07:16 33.674331 -117.872076 299 58ft 0kts
13-Jun-18 07:17 33.674331 -117.872076 299 58ft 0kts
13-Jun-18 07:18 33.674331 -117.872076 299 58ft 0kts
13-Jun-18 07:19 33.674331 -117.872076 299 58ft 0kts
13-Jun-18 07:20 33.674331 -117.872076 299 58ft 0kts
13-Jun-18 07:21 33.674331 -117.872076 299 58ft 0kts
13-Jun-18 07:22 33.674331 -117.872076 299 58ft 0kts
13-Jun-18 07:23 33.674331 -117.872076 299 58ft 0kts
13-Jun-18 07:24 33.674331 -117.872076 299 58ft 0kts
13-Jun-18 07:25 33.674331 -117.872076 299 58ft 0kts
13-Jun-18 07:26 33.674331 -117.872076 299 58ft 0kts
13-Jun-18 07:27 33.674331 -117.872076 299 58ft 0kts
13-Jun-18 07:28 33.674385 -117.871239 79 58ft 9kts
13-Jun-18 07:29 33.678658 -117.868428 28 58ft 25kts
13-Jun-18 07:30 33.681231 -117.866495 116 58ft 0kts
13-Jun-18 07:31 33.681231 -117.866495 116 58ft 0kts
13-Jun-18 07:32 33.681231 -117.866495 116 58ft 0kts
13-Jun-18 07:33 33.681231 -117.866495 116 58ft 0kts
13-Jun-18 07:34 33.681231 -117.866495 116 58ft 0kts
13-Jun-18 07:35 33.681175 -117.866330 110 58ft 5kts
13-Jun-18 07:36 33.671094 -117.871724 206 235ft 88kts
13-Jun-18 07:37 33.645210 -117.879328 179 1164ft 102kts
13-Jun-18 07:38 33.613591 -117.883135 185 1865ft 122kts
13-Jun-18 07:39 33.580985 -117.887291 185 2509ft 124kts
13-Jun-18 07:40 33.546470 -117.892105 186 3117ft 125kts
13-Jun-18 07:41 33.518829 -117.877237 112 3737ft 127kts
13-Jun-18 07:42 33.505378 -117.839186 111 4517ft 114kts
13-Jun-18 07:43 33.493152 -117.805080 111 5004ft 122kts
13-Jun-18 07:44 33.478861 -117.765211 111 5002ft 135kts
13-Jun-18 07:45 33.463963 -117.723351 108 5003ft 137kts
13-Jun-18 07:46 33.451334 -117.680246 107 5005ft 136kts
13-Jun-18 07:47 33.438065 -117.637820 115 5000ft 136kts
13-Jun-18 07:48 33.415629 -117.601281 129 4993ft 136kts
13-Jun-18 07:49 33.388737 -117.569505 134 4988ft 136kts
13-Jun-18 07:50 33.360357 -117.539273 136 4983ft 136kts
13-Jun-18 07:51 33.331718 -117.509761 136 4977ft 136kts
13-Jun-18 07:52 33.310822 -117.475649 82 4980ft 133kts
13-Jun-18 07:53 33.302736 -117.437662 162 4955ft 139kts
13-Jun-18 07:54 33.265292 -117.426453 154 4952ft 138kts
13-Jun-18 07:55 33.229726 -117.410256 125 4945ft 136kts
13-Jun-18 07:56 33.230708 -117.366741 81 4952ft 134kts
13-Jun-18 07:57 33.235674 -117.322736 81 4952ft 135kts
13-Jun-18 07:58 33.240650 -117.278052 81 4955ft 135kts
13-Jun-18 07:59 33.245587 -117.233278 81 4956ft 136kts
13-Jun-18 08:00 33.250508 -117.188372 81 4958ft 137kts
13-Jun-18 08:01 33.255465 -117.143094 81 4959ft 137kts
13-Jun-18 08:02 33.260466 -117.097632 81 4959ft 138kts
13-Jun-18 08:03 33.238034 -117.068391 161 4941ft 141kts
13-Jun-18 08:04 33.200870 -117.054741 161 5004ft 139kts
13-Jun-18 08:05 33.163499 -117.041056 161 5006ft 141kts
13-Jun-18 08:06 33.145002 -117.068500 281 5004ft 141kts
13-Jun-18 08:07 33.153283 -117.114385 281 5001ft 142kts
13-Jun-18 08:08 33.159605 -117.157304 337 4967ft 141kts
13-Jun-18 08:09 33.199196 -117.157967 1 4268ft 143kts
13-Jun-18 08:10 33.238668 -117.157232 1 3571ft 142kts
13-Jun-18 08:11 33.263818 -117.135950 90 3500ft 133kts
13-Jun-18 08:12 33.262539 -117.091857 91 3501ft 133kts
13-Jun-18 08:13 33.255684 -117.049903 148 3498ft 134kts
13-Jun-18 08:14 33.219460 -117.042037 170 3505ft 130kts
13-Jun-18 08:15 33.183786 -117.035788 170 3506ft 129kts
13-Jun-18 08:16 33.157113 -117.051095 260 3505ft 127kts
13-Jun-18 08:17 33.157402 -117.093095 263 3453ft 131kts
13-Jun-18 08:18 33.151354 -117.136608 259 2754ft 135kts
13-Jun-18 08:19 33.144362 -117.180262 258 1985ft 128kts
13-Jun-18 08:20 33.137938 -117.220160 259 1276ft 116kts
13-Jun-18 08:21 33.132261 -117.255311 259 663ft 95kts
13-Jun-18 08:22 33.128258 -117.280074 259 308ft 43kts
13-Jun-18 08:23 33.127224 -117.282655 156 311ft 0kts
13-Jun-18 08:24 33.127293 -117.280864 78 309ft 17kts
13-Jun-18 08:25 33.127626 -117.278905 87 307ft 0kts

Navigation Log

Ident Type
Flight plan parsing failed, navigation log unavailable